sensor_id;sensor_type;location;lat;lon;timestamp;temperature;humidity
17632;DHT22;8934;51.194;17.150;2023-02-27T00:01:05;0.80;99.90
17632;DHT22;8934;51.194;17.150;2023-02-27T00:03:53;0.80;99.90
17632;DHT22;8934;51.194;17.150;2023-02-27T00:06:41;0.70;99.90
17632;DHT22;8934;51.194;17.150;2023-02-27T00:09:28;0.70;99.90
17632;DHT22;8934;51.194;17.150;2023-02-27T00:12:16;0.70;99.90
17632;DHT22;8934;51.194;17.150;2023-02-27T00:15:06;0.80;99.90
17632;DHT22;8934;51.194;17.150;2023-02-27T00:17:54;0.70;99.90
17632;DHT22;8934;51.194;17.150;2023-02-27T00:20:42;0.70;99.90
17632;DHT22;8934;51.194;17.150;2023-02-27T00:23:30;0.70;99.90
17632;DHT22;8934;51.194;17.150;2023-02-27T00:26:17;0.70;99.90
17632;DHT22;8934;51.194;17.150;2023-02-27T00:29:05;0.80;99.90
17632;DHT22;8934;51.194;17.150;2023-02-27T00:31:54;0.70;99.90
17632;DHT22;8934;51.194;17.150;2023-02-27T00:34:42;0.70;99.90
17632;DHT22;8934;51.194;17.150;2023-02-27T00:37:30;0.70;99.90
17632;DHT22;8934;51.194;17.150;2023-02-27T00:40:17;0.70;99.90
17632;DHT22;8934;51.194;17.150;2023-02-27T00:43:05;0.70;99.90
17632;DHT22;8934;51.194;17.150;2023-02-27T00:45:52;0.70;99.90
17632;DHT22;8934;51.194;17.150;2023-02-27T00:48:41;0.70;99.90
17632;DHT22;8934;51.194;17.150;2023-02-27T00:51:29;0.70;99.90
17632;DHT22;8934;51.194;17.150;2023-02-27T00:54:16;0.70;99.90
17632;DHT22;8934;51.194;17.150;2023-02-27T00:57:04;0.70;99.90
17632;DHT22;8934;51.194;17.150;2023-02-27T00:59:52;0.70;99.90
17632;DHT22;8934;51.194;17.150;2023-02-27T01:02:39;0.70;99.90
17632;DHT22;8934;51.194;17.150;2023-02-27T01:05:28;0.70;99.90
17632;DHT22;8934;51.194;17.150;2023-02-27T01:08:17;0.60;99.90
17632;DHT22;8934;51.194;17.150;2023-02-27T01:11:05;0.70;99.90
17632;DHT22;8934;51.194;17.150;2023-02-27T01:13:53;0.60;99.90
17632;DHT22;8934;51.194;17.150;2023-02-27T01:16:41;0.60;99.90
17632;DHT22;8934;51.194;17.150;2023-02-27T01:19:28;0.60;99.90
17632;DHT22;8934;51.194;17.150;2023-02-27T01:22:17;0.60;99.90
17632;DHT22;8934;51.194;17.150;2023-02-27T01:25:06;0.60;99.90
17632;DHT22;8934;51.194;17.150;2023-02-27T01:27:57;0.60;99.90
17632;DHT22;8934;51.194;17.150;2023-02-27T01:30:44;0.50;99.90
17632;DHT22;8934;51.194;17.150;2023-02-27T01:33:32;0.50;99.90
17632;DHT22;8934;51.194;17.150;2023-02-27T01:36:20;0.50;99.90
17632;DHT22;8934;51.194;17.150;2023-02-27T01:39:09;0.50;99.90
17632;DHT22;8934;51.194;17.150;2023-02-27T01:41:58;0.50;99.90
17632;DHT22;8934;51.194;17.150;2023-02-27T01:45:15;0.50;99.90
17632;DHT22;8934;51.194;17.150;2023-02-27T01:48:11;0.50;99.90
17632;DHT22;8934;51.194;17.150;2023-02-27T01:51:04;0.50;99.90
17632;DHT22;8934;51.194;17.150;2023-02-27T01:53:53;0.50;99.90
17632;DHT22;8934;51.194;17.150;2023-02-27T01:56:43;0.50;99.90
17632;DHT22;8934;51.194;17.150;2023-02-27T01:59:32;0.50;99.90
17632;DHT22;8934;51.194;17.150;2023-02-27T02:02:23;0.50;99.90
17632;DHT22;8934;51.194;17.150;2023-02-27T02:05:14;0.50;99.90
17632;DHT22;8934;51.194;17.150;2023-02-27T02:08:03;0.50;99.90
17632;DHT22;8934;51.194;17.150;2023-02-27T02:10:52;0.50;99.90
17632;DHT22;8934;51.194;17.150;2023-02-27T02:13:41;0.50;99.90
17632;DHT22;8934;51.194;17.150;2023-02-27T02:16:54;0.50;99.90
17632;DHT22;8934;51.194;17.150;2023-02-27T02:23:37;0.50;99.90
17632;DHT22;8934;51.194;17.150;2023-02-27T02:33:49;0.50;99.90
17632;DHT22;8934;51.194;17.150;2023-02-27T02:40:25;0.40;99.90
17632;DHT22;8934;51.194;17.150;2023-02-27T02:43:20;0.40;99.90
17632;DHT22;8934;51.194;17.150;2023-02-27T02:46:15;0.40;99.90
17632;DHT22;8934;51.194;17.150;2023-02-27T02:49:12;0.40;99.90
17632;DHT22;8934;51.194;17.150;2023-02-27T02:52:05;0.40;99.90
17632;DHT22;8934;51.194;17.150;2023-02-27T02:54:58;0.40;99.90
17632;DHT22;8934;51.194;17.150;2023-02-27T02:57:53;0.40;99.90
17632;DHT22;8934;51.194;17.150;2023-02-27T03:00:46;0.40;99.90
17632;DHT22;8934;51.194;17.150;2023-02-27T03:03:39;0.40;99.90
17632;DHT22;8934;51.194;17.150;2023-02-27T03:06:30;0.40;99.90
17632;DHT22;8934;51.194;17.150;2023-02-27T03:09:23;0.40;99.90
17632;DHT22;8934;51.194;17.150;2023-02-27T03:12:20;0.40;99.90
17632;DHT22;8934;51.194;17.150;2023-02-27T03:15:14;0.40;99.90
17632;DHT22;8934;51.194;17.150;2023-02-27T03:18:05;0.40;99.90
17632;DHT22;8934;51.194;17.150;2023-02-27T03:20:58;0.40;99.90
17632;DHT22;8934;51.194;17.150;2023-02-27T03:23:48;0.40;99.90
17632;DHT22;8934;51.194;17.150;2023-02-27T03:26:39;0.40;99.90
17632;DHT22;8934;51.194;17.150;2023-02-27T03:29:36;0.40;99.90
17632;DHT22;8934;51.194;17.150;2023-02-27T03:32:30;0.40;99.90
17632;DHT22;8934;51.194;17.150;2023-02-27T03:35:19;0.30;99.90
17632;DHT22;8934;51.194;17.150;2023-02-27T03:38:10;0.40;99.90
17632;DHT22;8934;51.194;17.150;2023-02-27T03:41:07;0.30;99.90
17632;DHT22;8934;51.194;17.150;2023-02-27T03:44:08;0.30;99.90
17632;DHT22;8934;51.194;17.150;2023-02-27T03:46:57;0.30;99.90
17632;DHT22;8934;51.194;17.150;2023-02-27T03:49:46;0.40;99.90
17632;DHT22;8934;51.194;17.150;2023-02-27T03:52:37;0.30;99.90
17632;DHT22;8934;51.194;17.150;2023-02-27T03:55:29;0.40;99.90
17632;DHT22;8934;51.194;17.150;2023-02-27T03:58:18;0.30;99.90
17632;DHT22;8934;51.194;17.150;2023-02-27T04:01:06;0.30;99.90
17632;DHT22;8934;51.194;17.150;2023-02-27T04:03:57;0.30;99.90
17632;DHT22;8934;51.194;17.150;2023-02-27T04:07:17;0.30;99.90
17632;DHT22;8934;51.194;17.150;2023-02-27T04:10:32;0.30;99.90
17632;DHT22;8934;51.194;17.150;2023-02-27T04:13:38;0.30;99.90
17632;DHT22;8934;51.194;17.150;2023-02-27T04:16:43;0.20;99.90
17632;DHT22;8934;51.194;17.150;2023-02-27T04:20:07;0.20;99.90
17632;DHT22;8934;51.194;17.150;2023-02-27T04:23:01;0.20;99.90
17632;DHT22;8934;51.194;17.150;2023-02-27T04:26:00;0.20;99.90
17632;DHT22;8934;51.194;17.150;2023-02-27T04:29:00;0.20;99.90
17632;DHT22;8934;51.194;17.150;2023-02-27T04:31:53;0.20;99.90
17632;DHT22;8934;51.194;17.150;2023-02-27T04:34:49;0.30;99.90
17632;DHT22;8934;51.194;17.150;2023-02-27T04:37:45;0.30;99.90
17632;DHT22;8934;51.194;17.150;2023-02-27T04:40:41;0.20;99.90
17632;DHT22;8934;51.194;17.150;2023-02-27T04:43:31;0.20;99.90
17632;DHT22;8934;51.194;17.150;2023-02-27T04:46:22;0.20;99.90
17632;DHT22;8934;51.194;17.150;2023-02-27T04:49:14;0.20;99.90
17632;DHT22;8934;51.194;17.150;2023-02-27T04:52:08;0.20;99.90
17632;DHT22;8934;51.194;17.150;2023-02-27T04:55:01;0.20;99.90
17632;DHT22;8934;51.194;17.150;2023-02-27T04:57:56;0.20;99.90
17632;DHT22;8934;51.194;17.150;2023-02-27T05:00:49;0.20;99.90
17632;DHT22;8934;51.194;17.150;2023-02-27T05:03:40;0.20;99.90
17632;DHT22;8934;51.194;17.150;2023-02-27T05:06:32;0.10;99.90
17632;DHT22;8934;51.194;17.150;2023-02-27T05:09:25;0.20;99.90
17632;DHT22;8934;51.194;17.150;2023-02-27T05:12:18;0.10;99.90
17632;DHT22;8934;51.194;17.150;2023-02-27T05:15:10;0.10;99.90
17632;DHT22;8934;51.194;17.150;2023-02-27T05:18:01;0.10;99.90
17632;DHT22;8934;51.194;17.150;2023-02-27T05:21:00;0.10;99.90
17632;DHT22;8934;51.194;17.150;2023-02-27T05:23:57;0.10;99.90
17632;DHT22;8934;51.194;17.150;2023-02-27T05:27:07;0.10;99.90
17632;DHT22;8934;51.194;17.150;2023-02-27T05:30:02;0.00;99.90
17632;DHT22;8934;51.194;17.150;2023-02-27T05:32:55;0.10;99.90
17632;DHT22;8934;51.194;17.150;2023-02-27T05:35:47;0.10;99.90
17632;DHT22;8934;51.194;17.150;2023-02-27T05:38:39;0.10;99.90
17632;DHT22;8934;51.194;17.150;2023-02-27T05:41:31;0.00;99.90
17632;DHT22;8934;51.194;17.150;2023-02-27T05:44:24;0.00;99.90
17632;DHT22;8934;51.194;17.150;2023-02-27T05:47:16;0.00;99.90
17632;DHT22;8934;51.194;17.150;2023-02-27T05:50:08;0.00;99.90
17632;DHT22;8934;51.194;17.150;2023-02-27T05:53:00;0.10;99.90
17632;DHT22;8934;51.194;17.150;2023-02-27T05:55:51;0.10;99.90
17632;DHT22;8934;51.194;17.150;2023-02-27T05:58:42;0.10;99.90
17632;DHT22;8934;51.194;17.150;2023-02-27T06:01:30;0.00;99.90
17632;DHT22;8934;51.194;17.150;2023-02-27T06:04:18;0.10;99.90
17632;DHT22;8934;51.194;17.150;2023-02-27T06:07:07;0.00;99.90
17632;DHT22;8934;51.194;17.150;2023-02-27T06:09:54;0.00;99.90
17632;DHT22;8934;51.194;17.150;2023-02-27T06:12:42;0.00;99.90
17632;DHT22;8934;51.194;17.150;2023-02-27T06:15:30;0.10;99.90
17632;DHT22;8934;51.194;17.150;2023-02-27T06:18:18;0.10;99.90
17632;DHT22;8934;51.194;17.150;2023-02-27T06:21:06;0.10;99.90
17632;DHT22;8934;51.194;17.150;2023-02-27T06:23:55;0.10;99.90
17632;DHT22;8934;51.194;17.150;2023-02-27T06:26:43;0.10;99.90
17632;DHT22;8934;51.194;17.150;2023-02-27T06:29:31;0.20;99.90
17632;DHT22;8934;51.194;17.150;2023-02-27T06:32:19;0.20;99.90
17632;DHT22;8934;51.194;17.150;2023-02-27T06:35:07;0.20;99.90
17632;DHT22;8934;51.194;17.150;2023-02-27T06:37:55;0.20;99.90
17632;DHT22;8934;51.194;17.150;2023-02-27T06:40:44;0.20;99.90
17632;DHT22;8934;51.194;17.150;2023-02-27T06:43:32;0.30;99.90
17632;DHT22;8934;51.194;17.150;2023-02-27T06:46:21;0.30;99.90
17632;DHT22;8934;51.194;17.150;2023-02-27T06:49:09;0.30;99.90
17632;DHT22;8934;51.194;17.150;2023-02-27T06:51:56;0.30;99.90
17632;DHT22;8934;51.194;17.150;2023-02-27T06:54:44;0.30;99.90
17632;DHT22;8934;51.194;17.150;2023-02-27T06:57:33;0.30;99.90
17632;DHT22;8934;51.194;17.150;2023-02-27T07:00:22;0.30;99.90
17632;DHT22;8934;51.194;17.150;2023-02-27T07:03:09;0.40;99.90
17632;DHT22;8934;51.194;17.150;2023-02-27T07:05:57;0.40;99.90
17632;DHT22;8934;51.194;17.150;2023-02-27T07:08:45;0.40;99.90
17632;DHT22;8934;51.194;17.150;2023-02-27T07:11:51;0.40;99.90
17632;DHT22;8934;51.194;17.150;2023-02-27T07:14:41;0.50;99.90
17632;DHT22;8934;51.194;17.150;2023-02-27T07:17:28;0.50;99.90
17632;DHT22;8934;51.194;17.150;2023-02-27T07:20:17;0.60;99.90
17632;DHT22;8934;51.194;17.150;2023-02-27T07:23:05;0.60;99.90
17632;DHT22;8934;51.194;17.150;2023-02-27T07:25:52;0.60;99.90
17632;DHT22;8934;51.194;17.150;2023-02-27T07:28:40;0.60;99.90
17632;DHT22;8934;51.194;17.150;2023-02-27T07:31:28;0.60;99.90
17632;DHT22;8934;51.194;17.150;2023-02-27T07:34:16;0.60;99.90
17632;DHT22;8934;51.194;17.150;2023-02-27T07:37:04;0.60;99.90
17632;DHT22;8934;51.194;17.150;2023-02-27T07:39:51;0.70;99.90
17632;DHT22;8934;51.194;17.150;2023-02-27T07:42:39;0.70;99.90
17632;DHT22;8934;51.194;17.150;2023-02-27T07:45:27;0.80;99.90
17632;DHT22;8934;51.194;17.150;2023-02-27T07:48:17;0.80;99.90
17632;DHT22;8934;51.194;17.150;2023-02-27T07:51:04;0.80;99.90
17632;DHT22;8934;51.194;17.150;2023-02-27T07:53:52;0.90;99.90
17632;DHT22;8934;51.194;17.150;2023-02-27T07:56:42;1.00;99.90
17632;DHT22;8934;51.194;17.150;2023-02-27T07:59:29;1.00;99.90
17632;DHT22;8934;51.194;17.150;2023-02-27T08:02:17;1.00;99.90
17632;DHT22;8934;51.194;17.150;2023-02-27T08:05:06;1.00;99.90
17632;DHT22;8934;51.194;17.150;2023-02-27T08:07:54;1.10;99.90
17632;DHT22;8934;51.194;17.150;2023-02-27T08:10:42;1.20;99.90
17632;DHT22;8934;51.194;17.150;2023-02-27T08:13:29;1.20;99.90
17632;DHT22;8934;51.194;17.150;2023-02-27T08:16:37;1.20;99.90
17632;DHT22;8934;51.194;17.150;2023-02-27T08:19:25;1.20;99.90
17632;DHT22;8934;51.194;17.150;2023-02-27T08:22:14;1.20;99.90
17632;DHT22;8934;51.194;17.150;2023-02-27T08:25:01;1.30;99.90
17632;DHT22;8934;51.194;17.150;2023-02-27T08:27:51;1.50;99.90
17632;DHT22;8934;51.194;17.150;2023-02-27T08:30:38;1.50;99.90
17632;DHT22;8934;51.194;17.150;2023-02-27T08:33:25;1.50;99.90
17632;DHT22;8934;51.194;17.150;2023-02-27T08:36:13;1.50;99.90
17632;DHT22;8934;51.194;17.150;2023-02-27T08:39:02;1.50;99.90
17632;DHT22;8934;51.194;17.150;2023-02-27T08:41:50;1.50;99.90
17632;DHT22;8934;51.194;17.150;2023-02-27T08:44:37;1.50;99.90
17632;DHT22;8934;51.194;17.150;2023-02-27T08:47:27;1.60;99.90
17632;DHT22;8934;51.194;17.150;2023-02-27T08:50:15;1.70;99.90
17632;DHT22;8934;51.194;17.150;2023-02-27T08:53:03;1.80;99.90
17632;DHT22;8934;51.194;17.150;2023-02-27T08:55:52;2.00;99.90
17632;DHT22;8934;51.194;17.150;2023-02-27T08:58:39;2.20;99.90
17632;DHT22;8934;51.194;17.150;2023-02-27T09:01:27;2.40;99.90
17632;DHT22;8934;51.194;17.150;2023-02-27T09:04:19;2.60;99.90
17632;DHT22;8934;51.194;17.150;2023-02-27T09:07:07;2.80;99.90
17632;DHT22;8934;51.194;17.150;2023-02-27T09:09:54;2.90;99.90
17632;DHT22;8934;51.194;17.150;2023-02-27T09:12:43;2.60;99.90
17632;DHT22;8934;51.194;17.150;2023-02-27T09:15:31;2.60;99.90
17632;DHT22;8934;51.194;17.150;2023-02-27T09:18:20;2.60;99.90
17632;DHT22;8934;51.194;17.150;2023-02-27T09:21:08;2.80;99.90
17632;DHT22;8934;51.194;17.150;2023-02-27T09:23:56;2.70;99.90
17632;DHT22;8934;51.194;17.150;2023-02-27T09:27:02;2.50;99.90
17632;DHT22;8934;51.194;17.150;2023-02-27T09:29:51;2.50;99.90
17632;DHT22;8934;51.194;17.150;2023-02-27T09:32:41;2.40;99.90
17632;DHT22;8934;51.194;17.150;2023-02-27T09:35:28;2.40;99.90
17632;DHT22;8934;51.194;17.150;2023-02-27T09:38:16;2.40;99.90
17632;DHT22;8934;51.194;17.150;2023-02-27T09:41:06;2.50;99.90
17632;DHT22;8934;51.194;17.150;2023-02-27T09:43:53;2.50;99.90
17632;DHT22;8934;51.194;17.150;2023-02-27T09:46:42;2.80;99.90
17632;DHT22;8934;51.194;17.150;2023-02-27T09:49:35;3.00;99.90
17632;DHT22;8934;51.194;17.150;2023-02-27T09:52:28;3.00;99.90
17632;DHT22;8934;51.194;17.150;2023-02-27T09:55:19;3.10;99.90
17632;DHT22;8934;51.194;17.150;2023-02-27T09:58:28;3.30;99.90
17632;DHT22;8934;51.194;17.150;2023-02-27T10:01:20;3.60;99.90
17632;DHT22;8934;51.194;17.150;2023-02-27T10:04:26;3.60;99.90
17632;DHT22;8934;51.194;17.150;2023-02-27T10:07:21;3.50;99.90
17632;DHT22;8934;51.194;17.150;2023-02-27T10:10:20;3.50;99.90
17632;DHT22;8934;51.194;17.150;2023-02-27T10:13:26;3.40;99.90
17632;DHT22;8934;51.194;17.150;2023-02-27T10:16:16;3.60;99.90
17632;DHT22;8934;51.194;17.150;2023-02-27T10:19:12;3.70;99.90
17632;DHT22;8934;51.194;17.150;2023-02-27T10:22:05;3.80;99.90
17632;DHT22;8934;51.194;17.150;2023-02-27T10:24:59;3.90;99.90
17632;DHT22;8934;51.194;17.150;2023-02-27T10:27:50;4.10;99.90
17632;DHT22;8934;51.194;17.150;2023-02-27T10:30:40;4.00;99.90
17632;DHT22;8934;51.194;17.150;2023-02-27T10:33:33;4.10;99.90
17632;DHT22;8934;51.194;17.150;2023-02-27T10:36:21;4.30;99.90
17632;DHT22;8934;51.194;17.150;2023-02-27T10:39:20;4.60;99.90
17632;DHT22;8934;51.194;17.150;2023-02-27T10:42:11;4.80;99.90
17632;DHT22;8934;51.194;17.150;2023-02-27T10:45:01;4.80;99.90
17632;DHT22;8934;51.194;17.150;2023-02-27T10:47:49;4.70;99.90
17632;DHT22;8934;51.194;17.150;2023-02-27T10:50:39;4.50;99.90
17632;DHT22;8934;51.194;17.150;2023-02-27T10:53:27;4.60;99.90
17632;DHT22;8934;51.194;17.150;2023-02-27T10:56:21;4.70;99.90
17632;DHT22;8934;51.194;17.150;2023-02-27T10:59:17;4.70;99.90
17632;DHT22;8934;51.194;17.150;2023-02-27T11:02:19;4.60;99.90
17632;DHT22;8934;51.194;17.150;2023-02-27T11:05:25;4.60;99.90
17632;DHT22;8934;51.194;17.150;2023-02-27T11:08:21;4.60;99.90
17632;DHT22;8934;51.194;17.150;2023-02-27T11:11:11;4.60;99.90
17632;DHT22;8934;51.194;17.150;2023-02-27T11:14:16;4.80;99.90
17632;DHT22;8934;51.194;17.150;2023-02-27T11:17:23;4.90;99.90
17632;DHT22;8934;51.194;17.150;2023-02-27T11:20:33;4.90;99.90
17632;DHT22;8934;51.194;17.150;2023-02-27T11:23:23;4.90;99.90
17632;DHT22;8934;51.194;17.150;2023-02-27T11:26:18;4.80;99.90
17632;DHT22;8934;51.194;17.150;2023-02-27T11:29:17;4.90;99.90
17632;DHT22;8934;51.194;17.150;2023-02-27T11:32:11;4.80;99.90
17632;DHT22;8934;51.194;17.150;2023-02-27T11:34:59;4.60;99.90
17632;DHT22;8934;51.194;17.150;2023-02-27T11:37:49;4.40;99.90
17632;DHT22;8934;51.194;17.150;2023-02-27T11:40:47;3.90;99.90
17632;DHT22;8934;51.194;17.150;2023-02-27T11:43:39;3.70;99.90
17632;DHT22;8934;51.194;17.150;2023-02-27T11:46:34;3.60;99.90
17632;DHT22;8934;51.194;17.150;2023-02-27T11:49:36;3.50;99.90
17632;DHT22;8934;51.194;17.150;2023-02-27T11:52:33;3.50;99.90
17632;DHT22;8934;51.194;17.150;2023-02-27T11:55:25;3.50;99.90
17632;DHT22;8934;51.194;17.150;2023-02-27T11:58:17;3.40;99.90
17632;DHT22;8934;51.194;17.150;2023-02-27T12:01:07;3.40;99.90
17632;DHT22;8934;51.194;17.150;2023-02-27T12:04:03;3.40;99.90
17632;DHT22;8934;51.194;17.150;2023-02-27T12:06:55;3.30;99.90
17632;DHT22;8934;51.194;17.150;2023-02-27T12:09:46;3.30;99.90
17632;DHT22;8934;51.194;17.150;2023-02-27T12:12:42;3.30;99.90
17632;DHT22;8934;51.194;17.150;2023-02-27T12:15:36;3.40;99.90
17632;DHT22;8934;51.194;17.150;2023-02-27T12:18:32;3.40;99.90
17632;DHT22;8934;51.194;17.150;2023-02-27T12:21:26;3.40;99.90
17632;DHT22;8934;51.194;17.150;2023-02-27T12:24:19;3.40;99.90
17632;DHT22;8934;51.194;17.150;2023-02-27T12:27:14;3.10;99.90
17632;DHT22;8934;51.194;17.150;2023-02-27T12:30:06;2.90;99.90
17632;DHT22;8934;51.194;17.150;2023-02-27T12:32:59;2.80;99.90
17632;DHT22;8934;51.194;17.150;2023-02-27T12:35:54;2.80;99.90
17632;DHT22;8934;51.194;17.150;2023-02-27T12:38:45;2.80;99.90
17632;DHT22;8934;51.194;17.150;2023-02-27T12:41:38;2.90;99.90
17632;DHT22;8934;51.194;17.150;2023-02-27T12:44:40;2.90;99.90
17632;DHT22;8934;51.194;17.150;2023-02-27T12:47:36;3.00;99.90
17632;DHT22;8934;51.194;17.150;2023-02-27T12:50:43;3.30;99.90
17632;DHT22;8934;51.194;17.150;2023-02-27T12:57:11;3.60;99.90
17632;DHT22;8934;51.194;17.150;2023-02-27T13:00:11;3.80;99.90
17632;DHT22;8934;51.194;17.150;2023-02-27T13:03:03;3.90;99.90
17632;DHT22;8934;51.194;17.150;2023-02-27T13:05:58;3.90;99.90
17632;DHT22;8934;51.194;17.150;2023-02-27T13:09:08;4.00;99.90
17632;DHT22;8934;51.194;17.150;2023-02-27T13:12:04;4.10;99.90
17632;DHT22;8934;51.194;17.150;2023-02-27T13:15:00;4.00;99.90
17632;DHT22;8934;51.194;17.150;2023-02-27T13:17:53;4.10;99.90
17632;DHT22;8934;51.194;17.150;2023-02-27T13:20:48;4.10;99.90
17632;DHT22;8934;51.194;17.150;2023-02-27T13:23:48;4.20;99.90
17632;DHT22;8934;51.194;17.150;2023-02-27T13:26:42;4.00;99.90
17632;DHT22;8934;51.194;17.150;2023-02-27T13:29:35;3.80;99.90
17632;DHT22;8934;51.194;17.150;2023-02-27T13:32:29;3.80;99.90
17632;DHT22;8934;51.194;17.150;2023-02-27T13:35:35;3.80;99.90
17632;DHT22;8934;51.194;17.150;2023-02-27T13:38:33;3.90;99.90
17632;DHT22;8934;51.194;17.150;2023-02-27T13:41:35;3.90;99.90
17632;DHT22;8934;51.194;17.150;2023-02-27T13:44:38;3.80;99.90
17632;DHT22;8934;51.194;17.150;2023-02-27T13:47:49;3.70;99.90
17632;DHT22;8934;51.194;17.150;2023-02-27T13:50:48;3.60;99.90
17632;DHT22;8934;51.194;17.150;2023-02-27T13:53:37;3.40;99.90
17632;DHT22;8934;51.194;17.150;2023-02-27T13:56:25;3.40;99.90
17632;DHT22;8934;51.194;17.150;2023-02-27T13:59:19;3.30;99.90
17632;DHT22;8934;51.194;17.150;2023-02-27T14:05:45;3.00;99.90
17632;DHT22;8934;51.194;17.150;2023-02-27T14:08:46;2.90;99.90
17632;DHT22;8934;51.194;17.150;2023-02-27T14:11:35;2.90;99.90
17632;DHT22;8934;51.194;17.150;2023-02-27T14:14:38;2.80;99.90
17632;DHT22;8934;51.194;17.150;2023-02-27T14:17:46;2.70;99.90
17632;DHT22;8934;51.194;17.150;2023-02-27T14:20:49;2.70;99.90
17632;DHT22;8934;51.194;17.150;2023-02-27T14:23:37;2.70;99.90
17632;DHT22;8934;51.194;17.150;2023-02-27T14:26:25;2.70;99.90
17632;DHT22;8934;51.194;17.150;2023-02-27T14:29:17;2.70;99.90
17632;DHT22;8934;51.194;17.150;2023-02-27T14:32:06;2.70;99.90
17632;DHT22;8934;51.194;17.150;2023-02-27T14:34:55;2.70;99.90
17632;DHT22;8934;51.194;17.150;2023-02-27T14:37:43;2.80;99.90
17632;DHT22;8934;51.194;17.150;2023-02-27T14:40:36;2.80;99.90
17632;DHT22;8934;51.194;17.150;2023-02-27T14:43:31;2.80;99.90
17632;DHT22;8934;51.194;17.150;2023-02-27T14:46:24;2.90;99.90
17632;DHT22;8934;51.194;17.150;2023-02-27T14:49:19;2.90;99.90
17632;DHT22;8934;51.194;17.150;2023-02-27T14:52:16;2.90;99.90
17632;DHT22;8934;51.194;17.150;2023-02-27T14:55:11;2.90;99.90
17632;DHT22;8934;51.194;17.150;2023-02-27T14:58:08;2.90;99.90
17632;DHT22;8934;51.194;17.150;2023-02-27T15:00:59;2.90;99.90
17632;DHT22;8934;51.194;17.150;2023-02-27T15:03:51;2.90;99.90
17632;DHT22;8934;51.194;17.150;2023-02-27T15:06:41;2.90;99.90
17632;DHT22;8934;51.194;17.150;2023-02-27T15:09:34;2.90;99.90
17632;DHT22;8934;51.194;17.150;2023-02-27T15:12:23;2.90;99.90
17632;DHT22;8934;51.194;17.150;2023-02-27T15:15:18;2.80;99.90
17632;DHT22;8934;51.194;17.150;2023-02-27T15:18:12;2.80;99.90
17632;DHT22;8934;51.194;17.150;2023-02-27T15:21:00;2.80;99.90
17632;DHT22;8934;51.194;17.150;2023-02-27T15:23:58;2.70;99.90
17632;DHT22;8934;51.194;17.150;2023-02-27T15:26:51;2.70;99.90
17632;DHT22;8934;51.194;17.150;2023-02-27T15:29:41;2.60;99.90
17632;DHT22;8934;51.194;17.150;2023-02-27T15:32:31;2.50;99.90
17632;DHT22;8934;51.194;17.150;2023-02-27T15:35:21;2.50;99.90
17632;DHT22;8934;51.194;17.150;2023-02-27T15:38:22;2.40;99.90
17632;DHT22;8934;51.194;17.150;2023-02-27T15:41:11;2.40;99.90
17632;DHT22;8934;51.194;17.150;2023-02-27T15:44:02;2.40;99.90
17632;DHT22;8934;51.194;17.150;2023-02-27T15:46:50;2.30;99.90
17632;DHT22;8934;51.194;17.150;2023-02-27T15:49:38;2.30;99.90
17632;DHT22;8934;51.194;17.150;2023-02-27T15:52:26;2.30;99.90
17632;DHT22;8934;51.194;17.150;2023-02-27T15:55:22;2.20;99.90
17632;DHT22;8934;51.194;17.150;2023-02-27T15:58:19;2.20;99.90
17632;DHT22;8934;51.194;17.150;2023-02-27T16:01:12;2.20;99.90
17632;DHT22;8934;51.194;17.150;2023-02-27T16:04:05;2.20;99.90
17632;DHT22;8934;51.194;17.150;2023-02-27T16:06:58;2.10;99.90
17632;DHT22;8934;51.194;17.150;2023-02-27T16:09:49;2.10;99.90
17632;DHT22;8934;51.194;17.150;2023-02-27T16:12:37;2.10;99.90
17632;DHT22;8934;51.194;17.150;2023-02-27T16:15:28;2.10;99.90
17632;DHT22;8934;51.194;17.150;2023-02-27T16:18:27;2.10;99.90
17632;DHT22;8934;51.194;17.150;2023-02-27T16:21:17;2.00;99.90
17632;DHT22;8934;51.194;17.150;2023-02-27T16:24:17;2.00;99.90
17632;DHT22;8934;51.194;17.150;2023-02-27T16:27:05;2.00;99.90
17632;DHT22;8934;51.194;17.150;2023-02-27T16:30:09;2.00;99.90
17632;DHT22;8934;51.194;17.150;2023-02-27T16:32:59;1.90;99.90
17632;DHT22;8934;51.194;17.150;2023-02-27T16:35:49;1.90;99.90
17632;DHT22;8934;51.194;17.150;2023-02-27T16:38:37;1.90;99.90
17632;DHT22;8934;51.194;17.150;2023-02-27T16:41:25;1.80;99.90
17632;DHT22;8934;51.194;17.150;2023-02-27T16:44:13;1.80;99.90
17632;DHT22;8934;51.194;17.150;2023-02-27T16:47:00;1.80;99.90
17632;DHT22;8934;51.194;17.150;2023-02-27T16:49:48;1.80;99.90
17632;DHT22;8934;51.194;17.150;2023-02-27T16:52:37;1.70;99.90
17632;DHT22;8934;51.194;17.150;2023-02-27T16:55:25;1.70;99.90
17632;DHT22;8934;51.194;17.150;2023-02-27T16:58:13;1.70;99.90
17632;DHT22;8934;51.194;17.150;2023-02-27T17:01:01;1.70;99.90
17632;DHT22;8934;51.194;17.150;2023-02-27T17:03:49;1.70;99.90
17632;DHT22;8934;51.194;17.150;2023-02-27T17:06:38;1.60;99.90
17632;DHT22;8934;51.194;17.150;2023-02-27T17:09:27;1.60;99.90
17632;DHT22;8934;51.194;17.150;2023-02-27T17:12:15;1.60;99.90
17632;DHT22;8934;51.194;17.150;2023-02-27T17:15:03;1.60;99.90
17632;DHT22;8934;51.194;17.150;2023-02-27T17:17:51;1.50;99.90
17632;DHT22;8934;51.194;17.150;2023-02-27T17:20:38;1.50;99.90
17632;DHT22;8934;51.194;17.150;2023-02-27T17:23:26;1.50;99.90
17632;DHT22;8934;51.194;17.150;2023-02-27T17:26:15;1.40;99.90
17632;DHT22;8934;51.194;17.150;2023-02-27T17:29:03;1.40;99.90
17632;DHT22;8934;51.194;17.150;2023-02-27T17:31:51;1.30;99.90
17632;DHT22;8934;51.194;17.150;2023-02-27T17:34:38;1.20;99.90
17632;DHT22;8934;51.194;17.150;2023-02-27T17:37:26;1.20;99.90
17632;DHT22;8934;51.194;17.150;2023-02-27T17:40:14;1.10;99.90
17632;DHT22;8934;51.194;17.150;2023-02-27T17:43:03;1.00;99.90
17632;DHT22;8934;51.194;17.150;2023-02-27T17:45:51;0.90;99.90
17632;DHT22;8934;51.194;17.150;2023-02-27T17:48:38;0.90;99.90
17632;DHT22;8934;51.194;17.150;2023-02-27T17:51:27;0.70;99.90
17632;DHT22;8934;51.194;17.150;2023-02-27T17:54:15;0.60;99.90
17632;DHT22;8934;51.194;17.150;2023-02-27T17:57:03;0.50;99.90
17632;DHT22;8934;51.194;17.150;2023-02-27T17:59:53;0.30;99.90
17632;DHT22;8934;51.194;17.150;2023-02-27T18:02:42;0.20;99.90
17632;DHT22;8934;51.194;17.150;2023-02-27T18:05:30;0.10;99.90
17632;DHT22;8934;51.194;17.150;2023-02-27T18:08:18;0.00;99.90
17632;DHT22;8934;51.194;17.150;2023-02-27T18:11:08;-0.10;99.90
17632;DHT22;8934;51.194;17.150;2023-02-27T18:13:57;-0.20;99.90
17632;DHT22;8934;51.194;17.150;2023-02-27T18:16:46;-0.30;99.90
17632;DHT22;8934;51.194;17.150;2023-02-27T18:19:33;-0.40;99.90
17632;DHT22;8934;51.194;17.150;2023-02-27T18:22:24;-0.60;99.90
17632;DHT22;8934;51.194;17.150;2023-02-27T18:25:12;-0.70;99.90
17632;DHT22;8934;51.194;17.150;2023-02-27T18:28:01;-0.80;99.90
17632;DHT22;8934;51.194;17.150;2023-02-27T18:30:49;-1.00;99.90
17632;DHT22;8934;51.194;17.150;2023-02-27T18:33:38;-1.10;99.90
17632;DHT22;8934;51.194;17.150;2023-02-27T18:36:26;-1.20;99.90
17632;DHT22;8934;51.194;17.150;2023-02-27T18:39:15;-1.30;99.90
17632;DHT22;8934;51.194;17.150;2023-02-27T18:42:02;-1.30;99.90
17632;DHT22;8934;51.194;17.150;2023-02-27T18:44:52;-1.40;99.90